CSAV Trancura — D5EV9 — position and weather

sailwx.info

Track history (hours):
 
Tides and Currents Weather Stations Pressure Air Temp Water Temp Dewpoint Dewpoint Depression Visibility Wind Speed Wind Dir Waves Ship Positions

CSAV Trancura

Last reported at 2018-Feb-24 00:13 UTC. Time now 2018-Feb-25 15:11 UTC.
Position N 34°47' E 140°15'.

Length 300 m; draft 12.4 m.

Type: Cargo ship. MMSI: 636016177.

Date/timePositionNaut miles runAvg speedWind from/ knotsBaromVisibWave heightAir tempDewpointWater temp
2018-Feb-24 00:13N 34°47' E 140°15'1820.5
2018-Feb-23 23:20N 34°48' E 139°53'719.0
2018-Feb-23 22:56N 34°51' E 139°45'818.3
2018-Feb-23 22:30N 34°58' E 139°40'1020.1
2018-Feb-23 22:01N 35°07' E 139°44'713.8
2018-Feb-23 21:31N 35°14' E 139°46'612.5
2018-Feb-23 21:00N 35°19' E 139°43'510.2
2018-Feb-23 20:30N 35°24' E 139°40'1 1.3
2018-Feb-23 20:01N 35°24' E 139°41'0 0.0
2018-Feb-23 19:31N 35°24' E 139°41'0 0.0
2018-Feb-23 19:01N 35°24' E 139°41'0 0.0
2018-Feb-23 18:30N 35°24' E 139°41'0 0.0
2018-Feb-23 18:00N 35°24' E 139°41'0 0.0
2018-Feb-23 17:30N 35°24' E 139°41'0 0.0
2018-Feb-23 17:01N 35°24' E 139°41'0 0.0
2018-Feb-23 16:30N 35°24' E 139°41'0 0.0
2018-Feb-23 16:01N 35°24' E 139°41'0 0.0
2018-Feb-23 15:30N 35°24' E 139°41'0 0.0
2018-Feb-23 14:58N 35°24' E 139°41'0 0.0
2018-Feb-23 14:30N 35°24' E 139°41'0 0.0
2018-Feb-23 14:01N 35°24' E 139°41'0 0.0
2018-Feb-23 13:30N 35°24' E 139°41'0 0.0
2018-Feb-23 13:01N 35°24' E 139°41'0 0.0
2018-Feb-23 12:31N 35°24' E 139°41'0 0.0
2018-Feb-23 12:00N 35°24' E 139°41'0 0.0
2018-Feb-23 11:30N 35°24' E 139°41'0 0.0
2018-Feb-23 11:00N 35°24' E 139°41'0 0.0
2018-Feb-23 10:31N 35°24' E 139°41'0 0.0
2018-Feb-23 10:01N 35°24' E 139°41'0 0.0
2018-Feb-23 09:30N 35°24' E 139°41'0 0.0
2018-Feb-23 09:01N 35°24' E 139°41'0 0.5
2018-Feb-23 08:30N 35°24' E 139°41'2 4.5
2018-Feb-23 08:00N 35°22' E 139°42'5 9.8
2018-Feb-23 07:30N 35°18' E 139°45'612.1
2018-Feb-23 07:01N 35°12' E 139°47'510.8
2018-Feb-23 06:30N 35°07' E 139°46'5 9.5
2018-Feb-23 06:00N 35°03' E 139°43'713.6
2018-Feb-23 05:30N 34°58' E 139°36'714.0
2018-Feb-23 05:00N 34°55' E 139°29'714.2
2018-Feb-23 04:30N 34°51' E 139°22'814.9
2018-Feb-23 03:58N 34°45' E 139°15'715.4
2018-Feb-23 03:30N 34°39' E 139°10'714.6
2018-Feb-23 03:00N 34°33' E 139°05'714.3
2018-Feb-23 02:31N 34°27' E 139°01'713.6
2018-Feb-23 01:59N 34°22' E 138°55'1014.3
2018-Feb-23 01:18N 34°17' E 138°44'514.2
2018-Feb-23 00:59N 34°15' E 138°40'814.5
2018-Feb-23 00:27N 34°11' E 138°32'714.6
2018-Feb-23 00:00N 34°08' E 138°25'814.3
2018-Feb-22 23:26N 34°03' E 138°17'  
2018-Feb-18 13:14N 30°35' E 122°08'3 0.2
2018-Feb-18 00:41N 30°36' E 122°05'0 0.0
2018-Feb-18 00:29N 30°37' E 122°05'0 0.0
2018-Feb-17 23:47N 30°36' E 122°05'0 0.0
2018-Feb-17 23:29N 30°37' E 122°05'0 0.0
2018-Feb-17 22:23N 30°36' E 122°05'0 0.0
2018-Feb-17 21:47N 30°36' E 122°05'0 0.0
2018-Feb-17 21:23N 30°36' E 122°05'0 0.0
2018-Feb-17 11:42N 30°36' E 122°05'1 6.3
2018-Feb-17 11:30N 30°36' E 122°06'713.1
2018-Feb-17 10:58N 30°33' E 122°14'5 8.0
2018-Feb-17 10:21N 30°33' E 122°19'  
2018-Feb-14 21:23N 30°28' E 122°33'0 0.0
2018-Feb-14 20:59N 30°28' E 122°33'  
Track history (hours):
 
Tides and Currents Weather Stations Pressure Air Temp Water Temp Dewpoint Dewpoint Depression Visibility Wind Speed Wind Dir Waves Ship Positions

CSAV Trancura

Last reported at 2018-Feb-24 00:13 UTC. Time now 2018-Feb-25 15:11 UTC.
Position N 34°47' E 140°15'.

Length 300 m; draft 12.4 m.

Type: Cargo ship. MMSI: 636016177.

Date/timePositionNaut miles runAvg speedWind from/ knotsBaromVisibWave heightAir tempDewpointWater temp
2018-Feb-24 00:13N 34°47' E 140°15'1820.5
2018-Feb-23 23:20N 34°48' E 139°53'719.0
2018-Feb-23 22:56N 34°51' E 139°45'818.3
2018-Feb-23 22:30N 34°58' E 139°40'1020.1
2018-Feb-23 22:01N 35°07' E 139°44'713.8
2018-Feb-23 21:31N 35°14' E 139°46'612.5
2018-Feb-23 21:00N 35°19' E 139°43'510.2
2018-Feb-23 20:30N 35°24' E 139°40'1 1.3
2018-Feb-23 20:01N 35°24' E 139°41'0 0.0
2018-Feb-23 19:31N 35°24' E 139°41'0 0.0
2018-Feb-23 19:01N 35°24' E 139°41'0 0.0
2018-Feb-23 18:30N 35°24' E 139°41'0 0.0
2018-Feb-23 18:00N 35°24' E 139°41'0 0.0
2018-Feb-23 17:30N 35°24' E 139°41'0 0.0
2018-Feb-23 17:01N 35°24' E 139°41'0 0.0
2018-Feb-23 16:30N 35°24' E 139°41'0 0.0
2018-Feb-23 16:01N 35°24' E 139°41'0 0.0
2018-Feb-23 15:30N 35°24' E 139°41'0 0.0
2018-Feb-23 14:58N 35°24' E 139°41'0 0.0
2018-Feb-23 14:30N 35°24' E 139°41'0 0.0
2018-Feb-23 14:01N 35°24' E 139°41'0 0.0
2018-Feb-23 13:30N 35°24' E 139°41'0 0.0
2018-Feb-23 13:01N 35°24' E 139°41'0 0.0
2018-Feb-23 12:31N 35°24' E 139°41'0 0.0
2018-Feb-23 12:00N 35°24' E 139°41'0 0.0
2018-Feb-23 11:30N 35°24' E 139°41'0 0.0
2018-Feb-23 11:00N 35°24' E 139°41'0 0.0
2018-Feb-23 10:31N 35°24' E 139°41'0 0.0
2018-Feb-23 10:01N 35°24' E 139°41'0 0.0
2018-Feb-23 09:30N 35°24' E 139°41'0 0.0
2018-Feb-23 09:01N 35°24' E 139°41'0 0.5
2018-Feb-23 08:30N 35°24' E 139°41'2 4.5
2018-Feb-23 08:00N 35°22' E 139°42'5 9.8
2018-Feb-23 07:30N 35°18' E 139°45'612.1
2018-Feb-23 07:01N 35°12' E 139°47'510.8
2018-Feb-23 06:30N 35°07' E 139°46'5 9.5
2018-Feb-23 06:00N 35°03' E 139°43'713.6
2018-Feb-23 05:30N 34°58' E 139°36'714.0
2018-Feb-23 05:00N 34°55' E 139°29'714.2
2018-Feb-23 04:30N 34°51' E 139°22'814.9
2018-Feb-23 03:58N 34°45' E 139°15'715.4
2018-Feb-23 03:30N 34°39' E 139°10'714.6
2018-Feb-23 03:00N 34°33' E 139°05'714.3
2018-Feb-23 02:31N 34°27' E 139°01'713.6
2018-Feb-23 01:59N 34°22' E 138°55'1014.3
2018-Feb-23 01:18N 34°17' E 138°44'514.2
2018-Feb-23 00:59N 34°15' E 138°40'814.5
2018-Feb-23 00:27N 34°11' E 138°32'714.6
2018-Feb-23 00:00N 34°08' E 138°25'814.3
2018-Feb-22 23:26N 34°03' E 138°17'  
2018-Feb-18 13:14N 30°35' E 122°08'3 0.2
2018-Feb-18 00:41N 30°36' E 122°05'0 0.0
2018-Feb-18 00:29N 30°37' E 122°05'0 0.0
2018-Feb-17 23:47N 30°36' E 122°05'0 0.0
2018-Feb-17 23:29N 30°37' E 122°05'0 0.0
2018-Feb-17 22:23N 30°36' E 122°05'0 0.0
2018-Feb-17 21:47N 30°36' E 122°05'0 0.0
2018-Feb-17 21:23N 30°36' E 122°05'0 0.0
2018-Feb-17 11:42N 30°36' E 122°05'1 6.3
2018-Feb-17 11:30N 30°36' E 122°06'713.1
2018-Feb-17 10:58N 30°33' E 122°14'5 8.0
2018-Feb-17 10:21N 30°33' E 122°19'  
2018-Feb-14 21:23N 30°28' E 122°33'0 0.0
2018-Feb-14 20:59N 30°28' E 122°33'  

Dump ship's entire track history